Flight Track Log - Related Links

Times and Time Zones

All times are in EDT time to prevent confusion due to time zone crossing. See the AAL2007 flight status page for this flight to view local times or setup timezone preferences in your user account.

Time Position Orientation Groundspeed Altitude Reporting Facility
EDT Latitude Longitude Course Direction KTS MPH feet Rate Location/Type
Fri 06:57:57 PM 41.9333 -87.9167 253° West 178 205 2,000  Level Chicago TRACON
Fri 06:58:57 PM 41.9000 -87.9667 228° Southwest 225 259 4,400 2,850 Climbing Chicago TRACON
Fri 06:59:57 PM 41.8833 -88.0667 257° West 255 293 7,700 3,200 Climbing Chicago TRACON
Fri 07:00:00 PM 41.8782 -88.3296 242° Southwest  Level FlightAware
Fri 07:00:57 PM 41.8667 -88.1667 257° West 251 289 10,800  Level Chicago TRACON
Fri 07:01:00 PM 41.8363 -88.4685 255° West  Level FlightAware
Fri 07:02:00 PM 41.8047 -88.6131 254° West  Level FlightAware
Fri 07:02:10 PM 41.8625 -88.2753 267° West 274 315 13,600  Level Chicago Center
Fri 07:03:00 PM 41.7738 -88.7525 253° West  Level FlightAware
Fri 07:03:12 PM 41.8392 -88.3842 254° West 299 344 16,000  Level Chicago Center
Fri 07:04:14 PM 41.8092 -88.5217 254° West 322 371 18,600 1,968 Climbing Chicago Center
Fri 07:05:17 PM 41.7828 -88.6400 253° West 332 382 20,100 1,296 Climbing Chicago Center
Fri 07:06:19 PM 41.7531 -88.7731 253° West 370 426 21,300 1,790 Climbing Chicago Center
Fri 07:07:21 PM 41.7219 -88.9117 253° West 390 449 23,800 2,226 Climbing Chicago Center
Fri 07:08:23 PM 41.6867 -89.0728 254° West 384 442 25,900 1,597 Climbing Chicago Center
Fri 07:09:25 PM 41.6550 -89.2114 253° West 391 450 27,100 1,161 Climbing Chicago Center
Fri 07:10:27 PM 41.6228 -89.3531 253° West 399 459 28,300 1,016 Climbing Chicago Center
Fri 07:11:29 PM 41.5900 -89.4947 253° West 402 463 29,200 871 Climbing Chicago Center
Fri 07:12:31 PM 41.5550 -89.6536 254° West 411 473 30,100 871 Climbing Chicago Center
Fri 07:13:33 PM 41.5206 -89.8008 253° West 416 479 31,000 871 Climbing Chicago Center
Fri 07:14:35 PM 41.4858 -89.9503 253° West 422 486 31,900 823 Climbing Chicago Center
Fri 07:15:37 PM 41.4514 -90.0986 253° West 422 486 32,700 726 Climbing Chicago Center
Fri 07:16:39 PM 41.4092 -90.2769 253° West 424 488 33,400 629 Climbing Chicago Center
Fri 07:17:41 PM 41.3736 -90.4258 252° West 423 487 34,000 290 Climbing Chicago Center
Fri 07:18:43 PM 41.3392 -90.5703 252° West 414 476 34,000  Level Chicago Center
Fri 07:19:45 PM 41.2833 -90.7064 241° Southwest 433 498 34,000  Level Chicago Center
Fri 07:20:48 PM 41.2061 -90.8150 227° Southwest 413 475 34,000  Level Chicago Center
Fri 07:21:50 PM 41.1006 -90.9292 219° Southwest 410 472 34,000  Level Chicago Center
Fri 07:22:52 PM 41.0094 -91.0217 217° Southwest 412 474 34,000  Level Chicago Center
Fri 07:23:54 PM 40.9192 -91.1125 217° Southwest 411 473 34,000  Level Chicago Center
Fri 07:24:56 PM 40.8228 -91.1953 213° Southwest 412 474 34,000  Level Chicago Center
Fri 07:25:58 PM 40.7244 -91.2733 211° Southwest 413 475 34,000  Level Chicago Center
Fri 07:27:00 PM 40.6194 -91.3611 212° Southwest 416 479 34,000  Level Chicago Center
Fri 07:28:02 PM 40.5233 -91.4433 213° Southwest 416 479 34,000  Level Chicago Center
Fri 07:29:05 PM 40.4269 -91.5236 212° Southwest 414 476 34,000  Level Chicago Center
Fri 07:30:07 PM 40.3111 -91.6228 213° Southwest 415 478 34,000  Level Chicago Center
Fri 07:31:07 PM 40.2136 -91.7042 213° Southwest 417 480 34,000  Level Kansas Center
Fri 07:32:09 PM 40.1158 -91.7853 212° Southwest 416 479 34,000  Level Kansas Center
Fri 07:33:11 PM 40.0183 -91.8669 213° Southwest 418 481 34,000  Level Kansas Center
Fri 07:34:13 PM 39.9219 -91.9481 213° Southwest 415 478 34,000  Level Kansas Center
Fri 07:35:15 PM 39.8247 -92.0292 213° Southwest 415 478 34,000  Level Kansas Center
Fri 07:36:17 PM 39.7100 -92.1231 212° Southwest 410 472 34,000  Level Kansas Center
Fri 07:37:19 PM 39.6122 -92.2033 212° Southwest 414 476 34,000  Level Kansas Center
Fri 07:38:21 PM 39.5067 -92.2906 213° Southwest 416 479 34,000  Level Kansas Center
Fri 07:39:24 PM 39.4164 -92.3636 212° Southwest 420 483 34,000  Level Kansas Center
Fri 07:40:26 PM 39.3186 -92.4439 212° Southwest 419 482 34,000  Level Kansas Center
Fri 07:41:28 PM 39.2086 -92.5347 213° Southwest 417 480 34,000  Level Kansas Center
Fri 07:42:30 PM 39.1097 -92.6164 213° Southwest 419 482 34,000  Level Kansas Center
Fri 07:43:32 PM 39.0100 -92.6950 211° Southwest 420 483 34,000  Level Kansas Center
Fri 07:44:34 PM 38.9108 -92.7778 213° Southwest 423 487 34,000  Level Kansas Center
Fri 07:45:36 PM 38.7914 -92.8719 212° Southwest 421 484 34,000  Level Kansas Center
Fri 07:46:38 PM 38.6914 -92.9508 212° Southwest 422 486 34,000  Level Kansas Center
Fri 07:47:40 PM 38.5917 -93.0289 211° Southwest 421 484 34,000  Level Kansas Center
Fri 07:48:42 PM 38.4922 -93.1075 212° Southwest 421 484 34,000  Level Kansas Center
Fri 07:49:44 PM 38.3931 -93.1856 212° Southwest 419 482 34,000  Level Kansas Center
Fri 07:50:46 PM 38.2719 -93.2806 212° Southwest 425 489 34,000  Level Kansas Center
Fri 07:51:48 PM 38.1722 -93.3594 212° Southwest 425 489 34,000  Level Kansas Center
Fri 07:52:50 PM 38.0739 -93.4361 212° Southwest 419 482 34,000  Level Kansas Center
Fri 07:53:52 PM 37.9744 -93.5136 212° Southwest 420 483 34,000  Level Kansas Center
Fri 07:54:54 PM 37.8744 -93.5919 212° Southwest 422 486 34,000  Level Kansas Center
Fri 07:55:56 PM 37.7747 -93.6692 211° Southwest 421 484 34,000  Level Kansas Center
Fri 07:56:58 PM 37.6536 -93.7625 211° Southwest 424 488 34,000  Level Kansas Center
Fri 07:58:00 PM 37.5547 -93.8356 210° Southwest 416 479 34,000  Level Kansas Center
Fri 07:59:02 PM 37.4569 -93.9133 212° Southwest 416 479 34,000  Level Kansas Center
Fri 08:00:05 PM 37.3578 -93.9886 211° Southwest 416 479 34,000  Level Kansas Center
Fri 08:01:07 PM 37.2583 -94.0636 211° Southwest 416 479 34,000  Level Kansas Center
Fri 08:02:09 PM 37.1439 -94.1508 211° Southwest 416 479 34,000  Level Kansas Center
Fri 08:03:11 PM 37.0456 -94.2256 211° Southwest 414 476 34,000  Level Kansas Center
Fri 08:04:13 PM 36.9464 -94.3008 211° Southwest 414 476 34,000  Level Kansas Center
Fri 08:05:15 PM 36.8467 -94.3739 210° Southwest 413 475 34,000  Level Kansas Center
Fri 08:06:17 PM 36.7492 -94.4475 211° Southwest 411 473 34,000  Level Kansas Center
Fri 08:07:19 PM 36.6514 -94.5211 211° Southwest 409 471 34,000  Level Kansas Center
Fri 08:08:21 PM 36.5331 -94.6089 211° Southwest 409 471 34,000  Level Kansas Center
Fri 08:09:23 PM 36.4336 -94.6819 211° Southwest 410 472 34,000  Level Kansas Center
Fri 08:10:25 PM 36.3353 -94.7564 211° Southwest 411 473 34,000  Level Kansas Center
Fri 08:11:28 PM 36.2356 -94.8300 211° Southwest 413 475 34,000  Level Kansas Center
Fri 08:12:30 PM 36.1350 -94.9033 211° Southwest 415 478 34,000  Level Kansas Center
Fri 08:13:32 PM 36.0356 -94.9764 211° Southwest 413 475 34,000  Level Kansas Center
Fri 08:14:34 PM 35.9364 -95.0494 211° Southwest 413 475 34,000  Level Kansas Center
Fri 08:15:36 PM 35.8375 -95.1208 210° Southwest 411 473 34,000  Level Kansas Center
Fri 08:16:38 PM 35.7172 -95.2081 210° Southwest 413 475 34,000  Level Kansas Center
Fri 08:17:40 PM 35.6117 -95.2706 206° Southwest 418 481 34,000  Level Kansas Center
Fri 08:18:42 PM 35.5044 -95.3256 203° Southwest 415 478 34,000  Level Kansas Center
Fri 08:20:19 PM 35.3319 -95.4161 203° Southwest 415 478 34,000  Level Fort Center
Fri 08:21:19 PM 35.2244 -95.4719 203° Southwest 415 478 34,000  Level Fort Center
Fri 08:22:19 PM 35.1231 -95.5275 204° Southwest 415 478 34,000  Level Fort Center
Fri 08:23:19 PM 35.0175 -95.5806 202° Southwest 415 478 34,000  Level Fort Center
Fri 08:24:19 PM 34.9139 -95.6361 204° Southwest 415 478 34,000  Level Fort Center
Fri 08:25:19 PM 34.8083 -95.6914 203° Southwest 415 478 34,000  Level Fort Center
Fri 08:26:19 PM 34.7028 -95.7439 202° Southwest 415 478 34,000  Level Fort Center
Fri 08:27:19 PM 34.5992 -95.8014 205° Southwest 415 478 34,000  Level Fort Center
Fri 08:28:19 PM 34.4933 -95.8539 202° Southwest 415 478 34,000  Level Fort Center
Fri 08:29:19 PM 34.3897 -95.9086 204° Southwest 415 478 34,000  Level Fort Center
Fri 08:30:19 PM 34.2819 -95.9658 204° Southwest 415 478 34,000  Level Fort Center
Fri 08:31:19 PM 34.1781 -96.0178 202° Southwest 415 478 34,000  Level Fort Center
Fri 08:32:19 PM 34.0889 -96.0642 203° Southwest 406 467 34,000  Level Fort Center
Fri 08:33:19 PM 33.9808 -96.1161 202° Southwest 406 467 34,000  Level Fort Center
Fri 08:34:19 PM 33.8772 -96.1725 204° Southwest 412 474 34,000  Level Fort Center
Fri 08:35:19 PM 33.7631 -96.2292 202° Southwest 412 474 34,000  Level Fort Center
Fri 08:36:19 PM 33.6569 -96.2831 203° Southwest 412 474 34,000  Level Fort Center
Fri 08:37:19 PM 33.5489 -96.3367 202° Southwest 412 474 34,000  Level Fort Center
Fri 08:38:19 PM 33.4450 -96.3903 203° Southwest 412 474 34,000  Level Fort Center
Fri 08:39:19 PM 33.3389 -96.4411 202° Southwest 417 480 34,000  Level Fort Center
Fri 08:40:19 PM 33.2331 -96.4969 204° Southwest 417 480 34,000  Level Fort Center
Fri 08:41:19 PM 33.1269 -96.5478 202° Southwest 417 480 34,000  Level Fort Center
Fri 08:42:19 PM 33.0228 -96.6008 203° Southwest 417 480 34,000  Level Fort Center
Fri 08:43:19 PM 32.9167 -96.6536 203° Southwest 417 480 34,000  Level Fort Center
Fri 08:44:19 PM 32.8125 -96.7064 203° Southwest 417 480 34,000 -500 Level Fort Center
Fri 08:45:19 PM 32.7022 -96.7469 197° South 417 480 33,000 -1,000 Descending Fort Center
Fri 08:46:19 PM 32.5897 -96.7822 195° South 417 480 32,000 -1,000 Descending Fort Center
Fri 08:47:19 PM 32.4769 -96.8150 194° South 417 480 31,000 -1,000 Descending Fort Center
Fri 08:48:19 PM 32.3625 -96.8550 196° South 417 480 30,000 -950 Descending Fort Center
Fri 08:49:19 PM 32.2456 -96.8925 195° South 427 491 29,100 -950 Descending Fort Center
Fri 08:50:19 PM 32.1289 -96.9253 193° South 432 497 28,100 -900 Descending Fort Center
Fri 08:51:19 PM 32.0142 -96.9625 195° South 432 497 27,300 -800 Descending Fort Center
Fri 08:52:19 PM 31.9017 -96.9997 196° South 421 484 26,500 -743 Descending Fort Center
Fri 08:53:12 PM 31.8072 -97.0272 194° South 422 486 25,900 -730 Descending Houston Center
Fri 08:54:14 PM 31.6936 -97.0614 194° South 418 481 25,100 -829 Descending Houston Center
Fri 08:55:15 PM 31.5817 -97.0969 195° South 413 475 24,200 -829 Descending Houston Center
Fri 08:56:17 PM 31.4692 -97.1308 194° South 413 475 23,400 -774 Descending Houston Center
Fri 08:57:19 PM 31.3592 -97.1644 195° South 408 470 22,600 -1,355 Descending Houston Center
Fri 08:58:21 PM 31.2517 -97.2064 198° South 404 465 20,600 -2,098 Descending Houston Center
Fri 08:59:22 PM 31.1269 -97.2514 197° South 400 460 18,300 -2,049 Descending Houston Center
Fri 09:00:24 PM 31.0261 -97.2889 198° South 387 445 16,400 -1,951 Descending Houston Center
Fri 09:01:25 PM 30.9286 -97.3239 197° South 376 433 14,300 -1,659 Descending Houston Center
Fri 09:02:27 PM 30.8331 -97.3575 197° South 368 423 13,000 -629 Descending Houston Center
Fri 09:03:29 PM 30.7408 -97.3917 198° South 351 404 13,000 -339 Level Houston Center
Fri 09:04:31 PM 30.6386 -97.4553 208° Southwest 358 412 12,300 -1,024 Descending Houston Center
Fri 09:05:32 PM 30.5594 -97.5181 214° Southwest 346 398 10,900 -1,171 Descending Houston Center
Fri 09:06:34 PM 30.4894 -97.5772 216° Southwest 315 362 9,900 -878 Descending Houston Center
Fri 09:07:35 PM 30.4703 -97.6558 254° West 259 298 9,100 -1,317 Descending Houston Center
Fri 09:08:37 PM 30.4594 -97.7314 261° West 240 276 7,200 -1,756 Descending Houston Center
Fri 09:09:38 PM 30.4297 -97.7919 240° Southwest 235 270 5,500 -1,659 Descending Houston Center
Fri 09:10:40 PM 30.3733 -97.7972 185° South 220 253 3,800 -1,268 Descending Houston Center
Fri 09:11:41 PM 30.3547 -97.7311 108° East 218 251 2,900 -885 Descending Houston Center

Login

Don't have an account? Register now (free) for customized features, flight alerts, and more!